Tropical Cyclones
[Index]
Main Index Home Page Stock Weather Photos Extreme Storms Discussion Storm News and Storm Chasing Reports Tropical Cyclones / Hurricanes / Typhoons Weather Data and Links Wild Fires / Bushfires Weather Observation Techniques Weather Picture Catalogue Tornado Pictures and Reports Stock Video Footage and DVDs for sale
Season 2013-2014 Tropical Cyclone ITA Track Map
Season 2013-2014 Summaries: [BoM-AU] [JTWC-AU] [JTWC-SIO] [JTWC-SPAC] [JTWC-SH]
<<- Previous TC | JTWC 2013-2014 Season | Next TC ->>

click for intensity scale information  Lat/long Grid: Show Hide

 Date Labels: Show Hide

Joint Typhoon Warning Centre Cyclone Data

Name: ITA

04 Apr 2014 00:00 UTC to 15 Apr 2014 12:00 UTC

    date/time    lat    long     hPa   cat  kts
2014-04-04 00   11.1   157.5    1007         20          
2014-04-04 06   11.4   157.0    1004         25          
2014-04-04 12   11.5   156.7    1000         30          
2014-04-04 18   11.6   156.4     996         35          
2014-04-05 00   11.7   156.1     993    1    40          
2014-04-05 06   11.8   155.8     993    1    40          
2014-04-05 12   12.0   155.4     993    1    40          
2014-04-05 18   12.2   154.8     993    1    40          
2014-04-06 00   12.1   154.3     993    1    40          
2014-04-06 06   12.1   154.1     989    1    45          
2014-04-06 12   12.2   153.9     994    1    45          
2014-04-06 18   12.3   153.7     989    1    45          
2014-04-06 21   12.3   153.6     989    1    45          
2014-04-07 00   12.2   153.5     989    1    45          
2014-04-07 03   12.0   153.5     989    1    45          
2014-04-07 06   11.9   153.6     985    1    50          
2014-04-07 09   12.0   153.7     982    2    55          
2014-04-07 12   11.8   153.5     982    2    55          
2014-04-07 12   11.8   153.5     982    2    55          
2014-04-07 18   11.7   153.2     978    2    60          
2014-04-07 18   11.7   153.2     978    2    60          
2014-04-08 00   11.6   152.9     974    2    65          
2014-04-08 00   11.6   152.9     974    2    65          
2014-04-08 06   11.5   152.6     974    2    65          
2014-04-08 06   11.5   152.6     974    2    65          
2014-04-08 12   11.4   152.3     974    2    65          
2014-04-08 12   11.4   152.3     974    2    65          
2014-04-08 18   11.4   151.9     970    2    70          
2014-04-08 18   11.4   151.9     970    2    70          
2014-04-08 18   11.4   151.9     970    2    70          
2014-04-09 00   11.4   151.2     967    3    75          
2014-04-09 00   11.4   151.2     967    3    75          
2014-04-09 00   11.4   151.2     967    3    75          
2014-04-09 06   11.3   150.3     963    3    80          
2014-04-09 06   11.3   150.3     963    3    80          
2014-04-09 06   11.3   150.3     963    3    80          
2014-04-09 12   11.5   149.4     956    3    90          
2014-04-09 12   11.5   149.4     956    3    90          
2014-04-09 12   11.5   149.4     956    3    90          
2014-04-09 18   11.7   148.6     952    3    95          
2014-04-09 18   11.7   148.6     952    3    95          
2014-04-09 18   11.7   148.6     952    3    95          
2014-04-10 00   12.1   147.9     944    4   105          
2014-04-10 00   12.1   147.9     944    4   105          
2014-04-10 00   12.1   147.9     944    4   105          
2014-04-10 06   12.5   147.1     933    4   120          
2014-04-10 06   12.5   147.1     933    4   120          
2014-04-10 06   12.5   147.1     933    4   120          
2014-04-10 12   12.8   146.5     918    5   140          
2014-04-10 12   12.8   146.5     918    5   140          
2014-04-10 12   12.8   146.5     918    5   140          
2014-04-10 18   13.2   146.1     918    5   140          
2014-04-10 18   13.2   146.1     918    5   140          
2014-04-10 18   13.2   146.1     918    5   140          
2014-04-11 00   13.8   145.7     922    5   135          
2014-04-11 00   13.8   145.7     922    5   135          
2014-04-11 00   13.8   145.7     922    5   135          
2014-04-11 06   14.4   145.4     929    5   125          
2014-04-11 06   14.4   145.4     929    5   125          
2014-04-11 06   14.4   145.4     929    5   125          
2014-04-11 12   14.9   145.2     956    3    90          
2014-04-11 12   14.9   145.2     956    3    90          
2014-04-11 12   14.9   145.2     956    3    90          
2014-04-11 18   15.5   145.0     967    3    75          
2014-04-11 18   15.5   145.0     967    3    75          
2014-04-11 18   15.5   145.0     967    3    75          
2014-04-12 00   16.2   145.0     974    2    65          
2014-04-12 00   16.2   145.0     974    2    65          
2014-04-12 06   16.7   145.2     985    1    50          
2014-04-12 12   17.3   145.6     989    1    45          
2014-04-12 18   18.0   146.1     989    1    45          
2014-04-13 00   19.0   147.0     989    1    45          
2014-04-13 06   20.0   148.4     989    1    45          
2014-04-13 12   20.9   150.0     989    1    45          
2014-04-13 18   21.7   151.4     989    1    45          
2014-04-14 00   22.5   153.0     989    1    45          
2014-04-14 06   23.5   155.1     989    1    45          
2014-04-14 12   24.5   156.7     989    1    45          
2014-04-14 18   25.2   157.8     993    1    40          
2014-04-15 00   25.8   158.8     996         35          
2014-04-15 06   26.3   159.7    1000         30          
2014-04-15 12   26.4   160.8    1004         25          
Winds are 1-min average.

Tropical cyclone tracks developed by Michael Bath using data from the Joint Typhoon Warning Centre Best Tracks and Google Maps.


[Australian Severe Weather index] [Copyright Notice] [Email Contacts] [Search This Site] [Privacy Policy]
Document: tropical_cyclone_ita.htm Updated: 28 June 2017